Time;durP1;ratioP1;P1;durP2;ratioP2;P2;SDS_P1;SDS_P2;PMS_P1;PMS_P2;Temp;Humidity;BMP_temperature;BMP_pressure;BME280_temperature;BME280_humidity;BME280_pressure;Samples;Min_cycle;Max_cycle;Signal;HPM_P1;HPM_P2
2021/12/08 00:00:31;;;;;;;10.35;4.68;;;;;;;;;;5052499;28;20029;-71
2021/12/08 00:02:59;;;;;;;9.05;4.45;;;;;;;;;;5052768;28;20039;-71
2021/12/08 00:05:25;;;;;;;8.38;3.85;;;;;;;;;;5052738;28;20071;-71
2021/12/08 00:07:52;;;;;;;9.45;4.55;;;;;;;;;;5052375;28;20543;-71
2021/12/08 00:10:51;;;;;;;11.07;5.05;;;;;;;;;;5052591;28;20513;-71
2021/12/08 00:13:14;;;;;;;11.23;5.35;;;;;;;;;;5052607;28;20121;-71
2021/12/08 00:15:42;;;;;;;10.32;4.90;;;;;;;;;;5055266;28;20424;-71
2021/12/08 00:18:09;;;;;;;10.48;4.40;;;;;;;;;;5056148;28;20381;-71
2021/12/08 00:20:36;;;;;;;9.48;4.95;;;;;;;;;;5055944;28;20416;-71
2021/12/08 00:23:03;;;;;;;8.45;4.60;;;;;;;;;;5054848;28;20098;-71
2021/12/08 00:25:30;;;;;;;8.38;4.63;;;;;;;;;;5055971;28;20035;-71
2021/12/08 00:27:56;;;;;;;9.35;4.88;;;;;;;;;;5055656;28;20408;-71
2021/12/08 00:30:23;;;;;;;10.20;4.82;;;;;;;;;;5055893;28;20033;-71
2021/12/08 00:32:51;;;;;;;10.95;5.28;;;;;;;;;;5055889;28;20027;-71
2021/12/08 00:35:18;;;;;;;7.85;3.72;;;;;;;;;;5055434;28;20036;-71
2021/12/08 00:37:44;;;;;;;9.43;4.78;;;;;;;;;;5055808;28;20132;-71
2021/12/08 00:40:12;;;;;;;10.10;4.40;;;;;;;;;;5055722;28;20096;-71
2021/12/08 00:42:38;;;;;;;12.23;5.70;;;;;;;;;;5055342;28;20395;-71
2021/12/08 00:45:05;;;;;;;8.88;4.80;;;;;;;;;;5055959;28;20060;-71
2021/12/08 00:47:32;;;;;;;8.60;4.28;;;;;;;;;;5055681;28;20028;-71
2021/12/08 00:49:58;;;;;;;11.40;5.55;;;;;;;;;;5055463;28;20045;-71
2021/12/08 00:52:29;;;;;;;10.25;4.45;;;;;;;;;;5055507;28;20440;-71
2021/12/08 00:54:56;;;;;;;9.93;4.60;;;;;;;;;;5055622;28;20233;-71
2021/12/08 00:57:22;;;;;;;8.40;4.47;;;;;;;;;;5054982;28;20036;-71
2021/12/08 00:59:48;;;;;;;11.98;5.13;;;;;;;;;;5055381;28;20062;-71
2021/12/08 01:02:15;;;;;;;8.45;4.55;;;;;;;;;;5055359;28;20029;-70
2021/12/08 01:04:41;;;;;;;10.52;5.63;;;;;;;;;;5054876;28;20028;-70
2021/12/08 01:07:07;;;;;;;10.32;5.50;;;;;;;;;;5055450;28;20025;-70
2021/12/08 01:09:33;;;;;;;9.43;4.50;;;;;;;;;;5055314;28;20500;-70
2021/12/08 01:12:02;;;;;;;8.75;4.97;;;;;;;;;;5054727;28;20485;-70
2021/12/08 01:14:32;;;;;;;9.63;4.57;;;;;;;;;;5055088;28;20025;-70
2021/12/08 01:16:58;;;;;;;10.23;5.10;;;;;;;;;;5054848;28;20036;-70
2021/12/08 01:19:24;;;;;;;10.57;5.75;;;;;;;;;;5055319;28;20013;-71
2021/12/08 01:21:51;;;;;;;9.30;4.93;;;;;;;;;;5055290;28;20104;-70
2021/12/08 01:24:18;;;;;;;8.00;4.72;;;;;;;;;;5054531;28;20104;-71
2021/12/08 01:26:44;;;;;;;10.75;4.47;;;;;;;;;;5053848;28;20043;-70
2021/12/08 01:29:11;;;;;;;10.00;4.63;;;;;;;;;;5054826;28;20092;-70
2021/12/08 01:31:41;;;;;;;10.80;4.75;;;;;;;;;;5054477;28;20473;-70
2021/12/08 01:34:07;;;;;;;10.50;5.07;;;;;;;;;;5055327;28;20098;-71
2021/12/08 01:36:34;;;;;;;9.32;4.78;;;;;;;;;;5054795;28;20074;-70
2021/12/08 01:39:00;;;;;;;9.45;4.82;;;;;;;;;;5054241;28;20100;-71
2021/12/08 01:41:27;;;;;;;9.82;4.78;;;;;;;;;;5054629;28;20025;-70
2021/12/08 01:46:38;;;;;;;9.45;4.22;;;;;;;;;;5054339;28;20048;-70
2021/12/08 01:49:05;;;;;;;9.38;4.38;;;;;;;;;;5054214;28;20024;-70
2021/12/08 01:51:31;;;;;;;9.80;5.13;;;;;;;;;;5054635;28;20116;-70
2021/12/08 01:54:01;;;;;;;9.77;5.05;;;;;;;;;;5053974;28;20385;-70
2021/12/08 01:56:27;;;;;;;9.13;4.43;;;;;;;;;;5054303;28;20025;-70
2021/12/08 01:58:54;;;;;;;8.43;4.88;;;;;;;;;;5054155;28;20432;-71
2021/12/08 02:01:21;;;;;;;9.50;4.65;;;;;;;;;;5054156;28;20032;-71
2021/12/08 02:03:48;;;;;;;9.27;4.35;;;;;;;;;;5054119;28;20028;-71
2021/12/08 02:06:15;;;;;;;8.88;4.95;;;;;;;;;;5053637;28;20492;-71
2021/12/08 02:08:42;;;;;;;8.25;4.53;;;;;;;;;;5054351;28;20414;-71
2021/12/08 02:11:08;;;;;;;7.97;4.63;;;;;;;;;;5054032;28;20044;-70
2021/12/08 02:13:38;;;;;;;9.23;4.47;;;;;;;;;;5053500;28;20029;-70
2021/12/08 02:16:06;;;;;;;10.65;5.18;;;;;;;;;;5053940;28;20024;-71
2021/12/08 02:18:32;;;;;;;11.35;4.63;;;;;;;;;;5054108;28;20016;-71
2021/12/08 02:20:59;;;;;;;10.77;4.82;;;;;;;;;;5053786;28;20029;-71
2021/12/08 02:23:26;;;;;;;9.75;5.28;;;;;;;;;;5053846;28;20025;-70
2021/12/08 02:25:53;;;;;;;13.82;5.72;;;;;;;;;;5053874;28;20021;-71
2021/12/08 02:28:19;;;;;;;9.95;4.80;;;;;;;;;;5053472;28;20029;-71
2021/12/08 02:48:00;;;;;;;7.93;4.40;;;;;;;;;;5053873;28;20496;-70
2021/12/08 02:49:55;;;;;;;9.43;4.60;;;;;;;;;;5056482;28;20146;-70
2021/12/08 02:52:21;;;;;;;11.75;4.45;;;;;;;;;;5053276;28;20409;-71
2021/12/08 02:54:48;;;;;;;7.63;3.85;;;;;;;;;;5053380;28;20029;-70
2021/12/08 02:57:15;;;;;;;8.57;4.75;;;;;;;;;;5053009;28;20025;-70
2021/12/08 02:59:45;;;;;;;12.43;5.22;;;;;;;;;;5053331;28;20029;-71
2021/12/08 03:02:11;;;;;;;8.65;4.78;;;;;;;;;;5053047;28;20441;-70
2021/12/08 03:04:37;;;;;;;9.15;4.88;;;;;;;;;;5053229;28;20519;-70
2021/12/08 03:07:05;;;;;;;9.50;4.78;;;;;;;;;;5053461;28;20021;-70
2021/12/08 03:09:31;;;;;;;10.50;5.13;;;;;;;;;;5052811;28;20028;-70
2021/12/08 03:11:59;;;;;;;8.10;4.30;;;;;;;;;;5053115;28;20159;-70
2021/12/08 03:14:25;;;;;;;8.00;4.45;;;;;;;;;;5053225;28;20017;-71
2021/12/08 03:16:55;;;;;;;7.82;4.45;;;;;;;;;;5052810;28;20472;-70
2021/12/08 03:19:23;;;;;;;10.32;5.75;;;;;;;;;;5053171;28;20097;-71
2021/12/08 03:21:50;;;;;;;9.02;4.93;;;;;;;;;;5053113;28;20025;-71
2021/12/08 03:26:52;;;;;;;9.85;5.18;;;;;;;;;;5053384;28;20470;-70
2021/12/08 03:29:25;;;;;;;11.57;6.15;;;;;;;;;;5051748;28;20500;-70
2021/12/08 03:31:54;;;;;;;9.27;4.65;;;;;;;;;;5052560;28;20037;-71
2021/12/08 03:34:22;;;;;;;9.85;4.20;;;;;;;;;;5053027;28;20017;-71
2021/12/08 03:36:49;;;;;;;10.90;4.97;;;;;;;;;;5052936;28;20021;-70
2021/12/08 03:39:15;;;;;;;7.85;4.65;;;;;;;;;;5052619;28;20021;-71
2021/12/08 03:41:41;;;;;;;10.45;5.00;;;;;;;;;;5052902;28;20028;-70
2021/12/08 03:44:08;;;;;;;9.10;4.97;;;;;;;;;;5052921;28;20096;-71
2021/12/08 03:46:40;;;;;;;9.07;4.93;;;;;;;;;;5052461;28;20064;-70
2021/12/08 03:49:09;;;;;;;9.68;4.70;;;;;;;;;;5053750;28;20021;-70
2021/12/08 03:51:36;;;;;;;10.73;6.03;;;;;;;;;;5056727;28;20032;-71
2021/12/08 03:54:02;;;;;;;11.65;5.88;;;;;;;;;;5056674;28;20020;-70
2021/12/08 03:56:28;;;;;;;11.40;5.88;;;;;;;;;;5056547;28;20052;-70
2021/12/08 03:58:54;;;;;;;10.27;6.10;;;;;;;;;;5056142;28;20420;-70
2021/12/08 04:01:21;;;;;;;14.23;5.90;;;;;;;;;;5056441;28;20027;-70
2021/12/08 04:03:50;;;;;;;11.98;6.18;;;;;;;;;;5056690;28;20024;-70
2021/12/08 04:06:32;;;;;;;15.18;7.53;;;;;;;;;;5056043;28;20039;-70
2021/12/08 04:09:03;;;;;;;12.10;6.20;;;;;;;;;;5056327;28;20056;-70
2021/12/08 04:11:29;;;;;;;12.75;6.78;;;;;;;;;;5056324;28;20037;-71
2021/12/08 04:13:57;;;;;;;12.77;6.40;;;;;;;;;;5055907;28;20489;-71
2021/12/08 04:16:25;;;;;;;12.70;5.90;;;;;;;;;;5056388;28;20029;-71
2021/12/08 04:18:52;;;;;;;13.40;5.65;;;;;;;;;;5056140;28;20025;-71
2021/12/08 04:21:19;;;;;;;11.90;6.97;;;;;;;;;;5055634;28;20050;-70
2021/12/08 04:23:46;;;;;;;11.25;5.95;;;;;;;;;;5056032;28;20059;-70
2021/12/08 04:26:18;;;;;;;13.20;6.80;;;;;;;;;;5056050;28;20079;-70
2021/12/08 04:28:44;;;;;;;12.45;7.07;;;;;;;;;;5055650;28;20108;-70
2021/12/08 04:31:22;;;;;;;11.98;5.38;;;;;;;;;;5056045;28;20035;-70
2021/12/08 04:33:52;;;;;;;13.88;6.85;;;;;;;;;;5055797;28;20029;-70
2021/12/08 04:36:19;;;;;;;12.48;6.85;;;;;;;;;;5056217;28;20025;-70
2021/12/08 04:38:50;;;;;;;11.73;6.30;;;;;;;;;;5055814;28;20381;-70
2021/12/08 04:41:19;;;;;;;11.82;5.80;;;;;;;;;;5055525;28;20447;-70
2021/12/08 04:44:02;;;;;;;11.23;5.72;;;;;;;;;;5055817;28;20523;-70
2021/12/08 05:00:29;;;;;;;12.60;6.22;;;;;;;;;;5055212;28;20031;-70
2021/12/08 05:06:04;;;;;;;12.93;6.60;;;;;;;;;;5055337;28;20104;-70
2021/12/08 05:08:41;;;;;;;11.38;5.85;;;;;;;;;;5055294;28;20496;-70
2021/12/08 05:11:10;;;;;;;9.30;5.97;;;;;;;;;;5054720;28;20036;-69
2021/12/08 05:13:36;;;;;;;13.23;6.20;;;;;;;;;;5055176;28;20033;-72
2021/12/08 05:16:03;;;;;;;11.93;6.05;;;;;;;;;;5054897;28;20473;-70
2021/12/08 05:18:31;;;;;;;11.93;6.40;;;;;;;;;;5055349;28;20032;-71
2021/12/08 05:21:04;;;;;;;11.27;6.20;;;;;;;;;;5055269;28;20462;-71
2021/12/08 05:23:33;;;;;;;13.70;7.88;;;;;;;;;;5054687;28;20546;-71
2021/12/08 05:26:01;;;;;;;20.70;8.52;;;;;;;;;;5054900;28;20033;-71
2021/12/08 05:28:29;;;;;;;10.95;6.95;;;;;;;;;;5054927;28;20362;-71
2021/12/08 05:30:58;;;;;;;12.95;7.18;;;;;;;;;;5054389;28;20037;-71
2021/12/08 05:33:25;;;;;;;11.73;6.85;;;;;;;;;;5053587;28;20044;-71
2021/12/08 05:35:51;;;;;;;14.05;7.63;;;;;;;;;;5054668;28;20029;-69
2021/12/08 05:38:18;;;;;;;14.27;7.22;;;;;;;;;;5054335;28;20408;-70
2021/12/08 05:40:50;;;;;;;13.20;6.80;;;;;;;;;;5054835;28;20049;-70
2021/12/08 05:43:17;;;;;;;12.40;6.70;;;;;;;;;;5053321;28;20108;-70
2021/12/08 05:45:43;;;;;;;12.75;7.50;;;;;;;;;;5054107;28;20049;-71
2021/12/08 05:48:11;;;;;;;12.82;6.85;;;;;;;;;;5054618;28;20028;-70
2021/12/08 05:50:42;;;;;;;11.65;5.88;;;;;;;;;;5054095;28;20041;-70
2021/12/08 05:53:08;;;;;;;15.07;7.10;;;;;;;;;;5053961;28;20469;-70
2021/12/08 05:55:35;;;;;;;15.52;8.15;;;;;;;;;;5054315;28;20025;-70
2021/12/08 05:58:03;;;;;;;14.68;7.20;;;;;;;;;;5053850;28;20100;-70
2021/12/08 06:00:32;;;;;;;16.13;7.95;;;;;;;;;;5054396;28;20022;-70
2021/12/08 06:02:59;;;;;;;13.63;6.82;;;;;;;;;;5054093;28;20028;-70
2021/12/08 06:05:26;;;;;;;16.42;7.90;;;;;;;;;;5053689;28;20029;-70
2021/12/08 06:07:52;;;;;;;18.20;8.90;;;;;;;;;;5054055;28;20500;-70
2021/12/08 06:10:21;;;;;;;16.98;8.80;;;;;;;;;;5053921;28;20025;-71
2021/12/08 06:12:48;;;;;;;14.95;8.05;;;;;;;;;;5052850;28;20069;-71
2021/12/08 06:15:14;;;;;;;16.08;9.02;;;;;;;;;;5053954;28;20432;-71
2021/12/08 06:17:41;;;;;;;20.08;10.48;;;;;;;;;;5053942;28;20488;-71
2021/12/08 06:20:11;;;;;;;17.33;9.57;;;;;;;;;;5053539;28;20029;-71
2021/12/08 06:22:38;;;;;;;18.77;9.40;;;;;;;;;;5053920;28;20028;-71
2021/12/08 06:25:05;;;;;;;20.45;10.25;;;;;;;;;;5053708;28;20074;-71
2021/12/08 06:27:31;;;;;;;22.05;11.30;;;;;;;;;;5053533;28;20025;-71
2021/12/08 06:29:57;;;;;;;22.05;10.50;;;;;;;;;;5053656;28;20017;-71
2021/12/08 06:32:23;;;;;;;21.85;9.82;;;;;;;;;;5053656;28;20052;-71
2021/12/08 06:34:52;;;;;;;15.45;8.95;;;;;;;;;;5053288;28;20020;-70
2021/12/08 06:37:21;;;;;;;17.85;10.02;;;;;;;;;;5053475;28;20122;-70
2021/12/08 06:39:52;;;;;;;15.82;9.52;;;;;;;;;;5053534;28;20047;-71
2021/12/08 06:42:20;;;;;;;16.65;9.65;;;;;;;;;;5053118;28;20025;-71
2021/12/08 06:44:48;;;;;;;23.17;10.90;;;;;;;;;;5053503;28;20532;-70
2021/12/08 06:47:20;;;;;;;22.08;11.50;;;;;;;;;;5052936;28;20040;-70
2021/12/08 06:49:47;;;;;;;18.27;10.50;;;;;;;;;;5053254;28;20068;-70
2021/12/08 06:52:16;;;;;;;18.33;9.80;;;;;;;;;;5053316;28;20051;-70
2021/12/08 06:54:47;;;;;;;17.95;10.13;;;;;;;;;;5052975;28;20021;-71
2021/12/08 06:57:20;;;;;;;17.98;10.80;;;;;;;;;;5053364;28;20082;-70
2021/12/08 06:59:57;;;;;;;24.58;13.65;;;;;;;;;;5053452;28;20017;-71
2021/12/08 07:03:31;;;;;;;26.83;14.75;;;;;;;;;;5053039;28;20029;-71
2021/12/08 07:07:52;;;;;;;29.58;17.33;;;;;;;;;;5053574;28;20449;-71
2021/12/08 07:10:22;;;;;;;33.42;19.27;;;;;;;;;;5052838;28;20393;-73
2021/12/08 07:12:57;;;;;;;36.83;19.83;;;;;;;;;;5053693;28;20021;-73
2021/12/08 07:15:29;;;;;;;36.72;20.58;;;;;;;;;;5053193;28;20481;-73
2021/12/08 07:17:58;;;;;;;45.80;26.13;;;;;;;;;;5053051;28;20108;-71
2021/12/08 07:20:46;;;;;;;50.78;27.50;;;;;;;;;;5053200;28;20070;-71
2021/12/08 07:23:24;;;;;;;41.47;24.95;;;;;;;;;;5053980;28;20424;-72
2021/12/08 07:25:52;;;;;;;32.30;17.73;;;;;;;;;;5057230;28;20025;-72
2021/12/08 07:28:19;;;;;;;38.38;20.92;;;;;;;;;;5057145;28;20043;-72
2021/12/08 07:30:48;;;;;;;65.50;31.75;;;;;;;;;;5056751;28;20112;-72
2021/12/08 07:33:14;;;;;;;33.67;18.48;;;;;;;;;;5057094;28;20424;-72
2021/12/08 07:35:43;;;;;;;26.90;15.55;;;;;;;;;;5056936;28;20575;-71
2021/12/08 07:38:14;;;;;;;20.38;12.32;;;;;;;;;;5056543;28;20029;-71
2021/12/08 07:40:44;;;;;;;28.17;17.92;;;;;;;;;;5057106;28;20021;-71
2021/12/08 07:43:15;;;;;;;26.38;15.98;;;;;;;;;;5057030;28;20024;-71
2021/12/08 07:45:43;;;;;;;27.23;15.85;;;;;;;;;;5056487;28;20075;-71
2021/12/08 07:48:19;;;;;;;26.35;15.95;;;;;;;;;;5056683;28;20025;-71
2021/12/08 07:50:48;;;;;;;17.10;10.15;;;;;;;;;;5056311;28;20501;-71
2021/12/08 07:53:15;;;;;;;24.80;14.73;;;;;;;;;;5056786;28;20024;-71
2021/12/08 07:55:45;;;;;;;22.67;13.65;;;;;;;;;;5056544;28;20025;-70
2021/12/08 07:58:12;;;;;;;24.98;15.07;;;;;;;;;;5056173;28;20362;-70
2021/12/08 08:00:44;;;;;;;21.00;12.75;;;;;;;;;;5057050;28;20021;-70
2021/12/08 08:03:11;;;;;;;26.55;15.88;;;;;;;;;;5056478;28;20029;-71
2021/12/08 08:05:38;;;;;;;22.65;14.48;;;;;;;;;;5054861;28;20064;-72
2021/12/08 08:08:06;;;;;;;20.30;12.50;;;;;;;;;;5056738;28;20092;-72
2021/12/08 08:10:35;;;;;;;22.70;13.05;;;;;;;;;;5056296;28;20024;-71
2021/12/08 08:13:07;;;;;;;20.40;12.35;;;;;;;;;;5055881;28;20025;-72
2021/12/08 08:15:36;;;;;;;19.65;11.40;;;;;;;;;;5054704;28;20362;-70
2021/12/08 08:18:07;;;;;;;20.20;12.65;;;;;;;;;;5056154;28;20560;-71
2021/12/08 08:20:35;;;;;;;21.23;11.45;;;;;;;;;;5055888;28;20024;-71
2021/12/08 08:23:01;;;;;;;15.55;9.45;;;;;;;;;;5056315;28;20497;-71
2021/12/08 08:25:30;;;;;;;22.17;13.25;;;;;;;;;;5056037;28;20424;-70
2021/12/08 08:27:56;;;;;;;25.23;13.63;;;;;;;;;;5055720;28;20024;-70
2021/12/08 08:30:26;;;;;;;14.68;8.25;;;;;;;;;;5055867;28;20017;-70
2021/12/08 08:32:54;;;;;;;19.05;9.73;;;;;;;;;;5056010;28;20028;-70
2021/12/08 08:35:22;;;;;;;18.30;11.20;;;;;;;;;;5054558;28;20017;-70
2021/12/08 08:37:49;;;;;;;19.75;10.90;;;;;;;;;;5055779;28;20036;-70
2021/12/08 08:40:23;;;;;;;16.38;10.60;;;;;;;;;;5055559;28;20028;-71
2021/12/08 08:42:51;;;;;;;11.95;8.32;;;;;;;;;;5055991;28;20036;-73
2021/12/08 08:45:17;;;;;;;14.25;8.07;;;;;;;;;;5055607;28;20021;-71
2021/12/08 08:47:46;;;;;;;13.27;7.57;;;;;;;;;;5055280;28;20082;-70
2021/12/08 08:50:23;;;;;;;20.42;11.65;;;;;;;;;;5055307;28;20535;-71
2021/12/08 08:52:51;;;;;;;18.60;10.43;;;;;;;;;;5055489;28;20063;-70
2021/12/08 08:55:19;;;;;;;19.83;11.23;;;;;;;;;;5055005;28;20420;-70
2021/12/08 08:57:47;;;;;;;16.58;9.77;;;;;;;;;;5056018;28;20103;-72
2021/12/08 09:00:13;;;;;;;18.75;10.60;;;;;;;;;;5055502;28;20493;-71
2021/12/08 09:02:40;;;;;;;21.80;12.23;;;;;;;;;;5054958;28;20017;-71
2021/12/08 09:05:12;;;;;;;23.27;12.77;;;;;;;;;;5055577;28;20059;-71
2021/12/08 09:07:40;;;;;;;19.80;9.38;;;;;;;;;;5055319;28;20025;-71
2021/12/08 09:10:14;;;;;;;17.25;9.13;;;;;;;;;;5054867;28;20029;-71
2021/12/08 09:12:43;;;;;;;14.68;9.13;;;;;;;;;;5055433;28;20354;-71
2021/12/08 09:15:13;;;;;;;14.05;8.45;;;;;;;;;;5054659;28;20087;-71
2021/12/08 09:17:51;;;;;;;15.10;8.85;;;;;;;;;;5053814;28;20150;-71
2021/12/08 09:20:34;;;;;;;19.98;12.10;;;;;;;;;;5055125;28;20108;-71
2021/12/08 09:23:05;;;;;;;15.27;9.50;;;;;;;;;;5054604;28;20025;-72
2021/12/08 09:25:40;;;;;;;18.80;9.80;;;;;;;;;;5055286;28;20028;-72
2021/12/08 09:28:09;;;;;;;16.65;9.65;;;;;;;;;;5055222;28;20102;-73
2021/12/08 09:30:43;;;;;;;24.35;12.00;;;;;;;;;;5054405;28;20458;-71
2021/12/08 09:33:14;;;;;;;14.30;8.30;;;;;;;;;;5054856;28;20025;-71
2021/12/08 09:35:55;;;;;;;23.73;11.15;;;;;;;;;;5054893;28;20029;-71
2021/12/08 09:38:24;;;;;;;17.08;8.80;;;;;;;;;;5054614;28;20035;-70
2021/12/08 09:41:10;;;;;;;15.98;9.40;;;;;;;;;;5054657;28;20025;-70
2021/12/08 09:43:38;;;;;;;20.88;9.55;;;;;;;;;;5054626;28;20127;-70
2021/12/08 09:46:07;;;;;;;14.10;8.82;;;;;;;;;;5054484;28;20032;-70
2021/12/08 09:48:34;;;;;;;15.82;8.90;;;;;;;;;;5054808;28;20098;-70
2021/12/08 09:51:01;;;;;;;15.00;8.40;;;;;;;;;;5053828;28;20055;-71
2021/12/08 09:53:27;;;;;;;18.45;9.00;;;;;;;;;;5054453;28;20029;-70
2021/12/08 09:55:54;;;;;;;18.10;10.20;;;;;;;;;;5054320;28;20476;-71
2021/12/08 09:58:21;;;;;;;17.90;9.60;;;;;;;;;;5054238;28;20397;-71
2021/12/08 10:00:48;;;;;;;16.08;8.50;;;;;;;;;;5054294;28;20100;-71
2021/12/08 10:03:16;;;;;;;20.58;10.13;;;;;;;;;;5054204;28;20055;-71
2021/12/08 10:05:42;;;;;;;17.27;9.95;;;;;;;;;;5053698;28;20107;-70
2021/12/08 10:08:10;;;;;;;16.77;10.18;;;;;;;;;;5054232;28;20411;-71
2021/12/08 10:10:37;;;;;;;19.88;10.13;;;;;;;;;;5054003;28;20056;-70
2021/12/08 10:13:04;;;;;;;15.02;8.43;;;;;;;;;;5053868;28;20545;-70
2021/12/08 10:15:31;;;;;;;16.52;8.88;;;;;;;;;;5054046;28;20033;-70
2021/12/08 10:17:57;;;;;;;17.05;8.75;;;;;;;;;;5053939;28;20031;-70
2021/12/08 10:20:31;;;;;;;18.15;9.63;;;;;;;;;;5053466;28;20029;-71
2021/12/08 10:23:13;;;;;;;17.42;10.25;;;;;;;;;;5053856;28;20032;-71
2021/12/08 10:25:44;;;;;;;18.27;10.40;;;;;;;;;;5053365;28;20027;-71
2021/12/08 10:28:21;;;;;;;16.40;9.27;;;;;;;;;;5054383;28;20025;-71
2021/12/08 10:31:14;;;;;;;12.30;6.30;;;;;;;;;;5053958;28;20436;-71
2021/12/08 10:39:22;;;;;;;13.52;7.95;;;;;;;;;;5053649;28;20025;-70
2021/12/08 10:42:17;;;;;;;14.75;8.57;;;;;;;;;;5053141;28;20021;-71
2021/12/08 10:47:10;;;;;;;14.85;7.82;;;;;;;;;;5053011;28;20029;-70
2021/12/08 10:54:41;;;;;;;14.00;7.35;;;;;;;;;;5111399;27;20396;-72
2021/12/08 10:56:41;;;;;;;15.88;8.82;;;;;;;;;;5106353;28;20119;-70
2021/12/08 10:59:08;;;;;;;13.55;8.02;;;;;;;;;;5109957;28;20432;-71
2021/12/08 11:01:35;;;;;;;22.27;12.38;;;;;;;;;;5111255;28;20024;-71
2021/12/08 11:04:05;;;;;;;13.77;8.18;;;;;;;;;;5111160;28;20031;-72
2021/12/08 11:06:32;;;;;;;14.70;9.07;;;;;;;;;;5111212;28;20028;-72
2021/12/08 11:11:20;;;;;;;12.55;7.45;;;;;;;;;;5112122;27;20399;-72
2021/12/08 11:13:53;;;;;;;13.05;7.72;;;;;;;;;;5111774;27;20397;-70
2021/12/08 11:16:45;;;;;;;13.95;7.80;;;;;;;;;;5111044;27;20989;-70
2021/12/08 11:19:18;;;;;;;12.60;7.45;;;;;;;;;;5111315;28;20027;-71
2021/12/08 11:21:47;;;;;;;19.70;11.07;;;;;;;;;;5111144;28;20045;-70
2021/12/08 11:24:31;;;;;;;13.35;8.15;;;;;;;;;;5111451;28;20391;-71
2021/12/08 11:26:58;;;;;;;13.13;8.38;;;;;;;;;;5111416;28;20020;-71
2021/12/08 11:31:14;;;;;;;9.98;6.47;;;;;;;;;;5111548;27;20389;-71
2021/12/08 11:33:44;;;;;;;12.05;7.38;;;;;;;;;;5111279;28;20032;-71
2021/12/08 11:36:15;;;;;;;11.63;6.93;;;;;;;;;;5111360;28;20046;-71
2021/12/08 11:38:42;;;;;;;16.38;10.18;;;;;;;;;;5111423;28;20077;-71
2021/12/08 11:41:23;;;;;;;14.70;7.47;;;;;;;;;;5111304;28;20024;-71
2021/12/08 11:43:54;;;;;;;14.07;6.93;;;;;;;;;;5110910;28;20031;-71
2021/12/08 11:46:20;;;;;;;12.85;6.32;;;;;;;;;;5111384;28;20511;-71
2021/12/08 11:48:54;;;;;;;15.18;8.73;;;;;;;;;;5110897;28;20028;-71
2021/12/08 11:51:20;;;;;;;20.20;10.95;;;;;;;;;;5110792;28;20491;-71
2021/12/08 11:53:47;;;;;;;16.85;9.02;;;;;;;;;;5110997;28;20035;-72
2021/12/08 11:57:19;;;;;;;14.20;7.45;;;;;;;;;;5111274;27;20454;-72
2021/12/08 11:59:46;;;;;;;12.10;5.72;;;;;;;;;;5127249;28;20028;-71
2021/12/08 12:02:14;;;;;;;39.17;18.30;;;;;;;;;;5111262;28;20070;-71
2021/12/08 12:04:41;;;;;;;21.67;12.25;;;;;;;;;;5110899;28;20055;-72
2021/12/08 12:07:09;;;;;;;13.38;7.22;;;;;;;;;;5111190;28;20378;-72
2021/12/08 12:10:36;;;;;;;12.15;6.53;;;;;;;;;;5112132;27;20768;-72
2021/12/08 12:13:10;;;;;;;13.05;8.07;;;;;;;;;;5110943;28;20024;-72
2021/12/08 12:17:03;;;;;;;17.00;10.07;;;;;;;;;;5111959;27;20404;-72
2021/12/08 12:19:32;;;;;;;14.85;8.50;;;;;;;;;;5111003;28;20048;-71
2021/12/08 12:23:59;;;;;;;13.68;7.63;;;;;;;;;;5111792;27;20456;-71
2021/12/08 12:29:44;;;;;;;14.95;9.18;;;;;;;;;;5111869;27;20401;-71
2021/12/08 12:32:17;;;;;;;12.85;8.07;;;;;;;;;;5111171;28;20644;-71
2021/12/08 12:34:44;;;;;;;15.13;7.95;;;;;;;;;;5111842;28;20020;-72
2021/12/08 12:37:16;;;;;;;16.15;9.45;;;;;;;;;;5109956;28;20031;-72
2021/12/08 12:41:58;;;;;;;11.85;7.13;;;;;;;;;;5071211;28;20811;-72
2021/12/08 12:44:27;;;;;;;13.88;7.78;;;;;;;;;;5070979;28;20025;-71
2021/12/08 12:52:00;;;;;;;11.07;6.65;;;;;;;;;;5111412;27;20401;-72
2021/12/08 12:55:08;;;;;;;12.60;7.97;;;;;;;;;;5110899;27;20397;-71
2021/12/08 12:57:54;;;;;;;10.32;5.95;;;;;;;;;;5111316;28;20089;-71
2021/12/08 13:02:54;;;;;;;13.77;8.00;;;;;;;;;;5173671;27;20314;-72
2021/12/08 13:09:32;;;;;;;21.02;12.52;;;;;;;;;;5111030;27;20397;-72
2021/12/08 13:12:15;;;;;;;14.88;8.90;;;;;;;;;;5111292;28;20030;-72
2021/12/08 13:14:42;;;;;;;15.13;8.13;;;;;;;;;;5110946;28;20024;-72
2021/12/08 13:17:36;;;;;;;15.60;10.52;;;;;;;;;;5111612;27;20388;-71
2021/12/08 13:20:05;;;;;;;11.05;7.80;;;;;;;;;;5111301;28;20024;-71
2021/12/08 13:22:43;;;;;;;11.50;8.10;;;;;;;;;;5111037;28;20466;-71
2021/12/08 13:25:26;;;;;;;10.13;6.72;;;;;;;;;;5111241;28;20024;-71
2021/12/08 13:29:21;;;;;;;19.20;9.90;;;;;;;;;;5111461;27;20466;-71
2021/12/08 13:33:25;;;;;;;17.58;10.20;;;;;;;;;;5111660;27;20396;-71
2021/12/08 13:36:49;;;;;;;18.42;10.95;;;;;;;;;;5110891;27;20396;-71
2021/12/08 13:39:20;;;;;;;16.30;8.60;;;;;;;;;;5111523;28;20491;-72
2021/12/08 13:42:05;;;;;;;13.15;7.72;;;;;;;;;;5111534;27;20888;-70
2021/12/08 13:44:36;;;;;;;14.70;9.23;;;;;;;;;;5110685;28;20024;-71
2021/12/08 13:47:10;;;;;;;23.67;12.20;;;;;;;;;;5111229;28;20081;-71
2021/12/08 13:49:51;;;;;;;27.27;15.32;;;;;;;;;;5110989;28;20050;-71
2021/12/08 13:52:19;;;;;;;15.88;10.38;;;;;;;;;;5111188;28;20027;-71
2021/12/08 13:54:46;;;;;;;20.38;12.45;;;;;;;;;;5110997;28;20020;-71
2021/12/08 13:57:31;;;;;;;19.13;10.48;;;;;;;;;;5110750;28;20039;-71
2021/12/08 14:00:16;;;;;;;15.82;9.43;;;;;;;;;;5110861;28;20389;-72
2021/12/08 14:02:47;;;;;;;18.92;12.40;;;;;;;;;;5111263;28;20048;-72
2021/12/08 14:05:18;;;;;;;18.38;11.20;;;;;;;;;;5110550;28;20035;-71
2021/12/08 14:08:09;;;;;;;16.88;12.35;;;;;;;;;;5111990;27;20385;-71
2021/12/08 14:11:23;;;;;;;21.45;14.32;;;;;;;;;;5111453;27;20446;-71
2021/12/08 14:13:50;;;;;;;21.27;13.60;;;;;;;;;;5111323;28;20027;-71
2021/12/08 14:19:09;;;;;;;28.30;18.10;;;;;;;;;;5111117;27;20446;-72
2021/12/08 14:26:25;;;;;;;32.72;22.23;;;;;;;;;;5111045;27;20389;-71
2021/12/08 14:28:52;;;;;;;44.65;26.58;;;;;;;;;;5111738;28;20028;-72
2021/12/08 14:31:21;;;;;;;43.53;25.75;;;;;;;;;;5111298;28;20037;-72
2021/12/08 14:34:49;;;;;;;39.00;25.80;;;;;;;;;;5112143;27;20884;-71
2021/12/08 14:37:15;;;;;;;37.50;24.27;;;;;;;;;;5111351;28;20429;-71
2021/12/08 14:40:21;;;;;;;51.33;31.25;;;;;;;;;;5110990;27;20405;-70
2021/12/08 14:47:52;;;;;;;47.40;29.25;;;;;;;;;;5110957;27;20396;-71
2021/12/08 14:52:37;;;;;;;37.97;23.08;;;;;;;;;;5112138;27;20396;-71
2021/12/08 14:55:05;;;;;;;33.88;21.17;;;;;;;;;;5110856;28;20103;-72
2021/12/08 14:57:34;;;;;;;46.70;28.05;;;;;;;;;;5111166;28;20020;-72
2021/12/08 15:00:09;;;;;;;42.70;28.73;;;;;;;;;;5110789;28;20559;-71
2021/12/08 15:02:40;;;;;;;53.00;30.77;;;;;;;;;;5111100;28;20103;-72
2021/12/08 15:05:08;;;;;;;55.17;34.20;;;;;;;;;;5111150;28;20176;-71
2021/12/08 15:07:34;;;;;;;64.50;38.15;;;;;;;;;;5109372;28;20525;-71
2021/12/08 15:10:00;;;;;;;76.07;42.80;;;;;;;;;;5110950;28;20099;-71
2021/12/08 15:12:27;;;;;;;66.68;41.60;;;;;;;;;;5111109;28;20373;-71
2021/12/08 15:14:53;;;;;;;70.07;41.58;;;;;;;;;;5110501;28;20103;-72
2021/12/08 15:17:27;;;;;;;78.95;51.50;;;;;;;;;;5110961;28;20435;-71
2021/12/08 15:19:54;;;;;;;83.55;51.60;;;;;;;;;;5110857;28;20427;-71
2021/12/08 15:22:26;;;;;;;54.92;33.95;;;;;;;;;;5110427;28;20118;-71
2021/12/08 15:25:06;;;;;;;48.63;30.90;;;;;;;;;;5110946;28;20029;-71
2021/12/08 15:27:36;;;;;;;54.88;33.80;;;;;;;;;;5110975;28;20020;-72
2021/12/08 15:30:04;;;;;;;50.08;29.38;;;;;;;;;;5110254;28;20020;-70
2021/12/08 15:32:30;;;;;;;53.75;32.88;;;;;;;;;;5110667;28;20039;-71
2021/12/08 15:35:04;;;;;;;59.83;37.67;;;;;;;;;;5110422;28;20027;-71
2021/12/08 15:37:31;;;;;;;67.00;42.60;;;;;;;;;;5110674;28;20047;-70
2021/12/08 15:39:58;;;;;;;60.03;37.67;;;;;;;;;;5110532;28;20023;-71
2021/12/08 15:42:25;;;;;;;66.40;40.40;;;;;;;;;;5110093;28;20391;-72
2021/12/08 15:44:56;;;;;;;75.32;45.70;;;;;;;;;;5110465;28;20016;-72
2021/12/08 15:47:22;;;;;;;79.07;46.63;;;;;;;;;;5110576;28;20491;-71
2021/12/08 15:49:48;;;;;;;81.43;48.42;;;;;;;;;;5110021;28;20031;-72
2021/12/08 15:52:17;;;;;;;87.15;50.13;;;;;;;;;;5110040;28;20048;-71
2021/12/08 15:54:44;;;;;;;129.15;63.78;;;;;;;;;;5110158;28;20020;-71
2021/12/08 15:57:15;;;;;;;107.20;54.70;;;;;;;;;;5109979;28;20376;-71
2021/12/08 15:59:45;;;;;;;120.57;65.00;;;;;;;;;;5110582;28;20070;-71
2021/12/08 16:02:22;;;;;;;119.13;65.63;;;;;;;;;;5105144;28;20089;-71
2021/12/08 16:04:56;;;;;;;99.72;53.78;;;;;;;;;;5095993;28;20077;-71
2021/12/08 16:07:26;;;;;;;87.53;48.30;;;;;;;;;;5096341;28;20099;-70
2021/12/08 16:09:53;;;;;;;106.25;61.38;;;;;;;;;;5096691;28;20100;-71
2021/12/08 16:12:19;;;;;;;97.03;57.00;;;;;;;;;;5095754;28;20036;-71
2021/12/08 16:14:51;;;;;;;66.90;39.40;;;;;;;;;;5096320;28;20020;-71
2021/12/08 16:17:20;;;;;;;65.50;40.55;;;;;;;;;;5095780;28;20107;-70
2021/12/08 16:19:48;;;;;;;70.30;43.38;;;;;;;;;;5096453;28;20051;-71
2021/12/08 16:22:16;;;;;;;71.35;42.67;;;;;;;;;;5096396;28;20359;-72